Austin, Texas
Traffic Map
Current Weather Conditions
Austin, Texas
Overcast
Overcast
14°
Feels Like: 14°
Wind Chill: 14° Ceiling: 900
Heat Index: 14° Visibility: 10mi
Dew Point: 13° Wind: 8mph
Humidity: 90% Direction: 170° (S)
Pressure: 30.06in Gusts: 0mph
Raw Report DataKATT 140951Z AUTO 17007KT 10SM OVC009 14/13 A3006 RMK AO2 CIG 007V011 SLP174 T01440128
Traffic Incident Summary
Active as of:
Severity:
Category:
InformationThere was an issue retrieving the traffic information for this location. Please try a different location or try again shortly.
Advertisements
Track Severe Weather on mobile